sensor_id;sensor_type;location;lat;lon;timestamp;pressure;altitude;pressure_sealevel;temperature;humidity
51297;BME280;37380;45.186;9.792;2023-03-14T00:00:39;100316.66;;;11.77;100.00
51297;BME280;37380;45.186;9.792;2023-03-14T00:03:06;100231.16;;;11.40;100.00
51297;BME280;37380;45.186;9.792;2023-03-14T00:05:34;100243.69;;;11.52;100.00
51297;BME280;37380;45.186;9.792;2023-03-14T00:08:01;100192.25;;;11.16;100.00
51297;BME280;37380;45.186;9.792;2023-03-14T00:10:36;100294.91;;;11.78;100.00
51297;BME280;37380;45.186;9.792;2023-03-14T00:13:30;100254.44;;;11.66;100.00
51297;BME280;37380;45.186;9.792;2023-03-14T00:16:04;100259.53;;;11.58;100.00
51297;BME280;37380;45.186;9.792;2023-03-14T00:18:33;100246.53;;;11.63;100.00
51297;BME280;37380;45.186;9.792;2023-03-14T00:21:01;100174.81;;;11.15;100.00
51297;BME280;37380;45.186;9.792;2023-03-14T00:23:30;100170.03;;;10.97;100.00
51297;BME280;37380;45.186;9.792;2023-03-14T00:26:06;100247.06;;;11.48;100.00
51297;BME280;37380;45.186;9.792;2023-03-14T00:29:08;100200.56;;;11.36;100.00
51297;BME280;37380;45.186;9.792;2023-03-14T00:32:02;100173.28;;;11.25;100.00
51297;BME280;37380;45.186;9.792;2023-03-14T00:34:36;100152.81;;;11.05;100.00
51297;BME280;37380;45.186;9.792;2023-03-14T00:37:32;100146.00;;;11.14;100.00
51297;BME280;37380;45.186;9.792;2023-03-14T00:39:59;100189.31;;;11.39;100.00
51297;BME280;37380;45.186;9.792;2023-03-14T00:42:33;100157.59;;;11.25;100.00
51297;BME280;37380;45.186;9.792;2023-03-14T00:45:27;100183.34;;;11.44;100.00
51297;BME280;37380;45.186;9.792;2023-03-14T00:47:54;100124.66;;;10.95;100.00
51297;BME280;37380;45.186;9.792;2023-03-14T00:50:21;100097.66;;;10.96;100.00
51297;BME280;37380;45.186;9.792;2023-03-14T00:52:48;100097.44;;;10.87;100.00
51297;BME280;37380;45.186;9.792;2023-03-14T00:55:15;100094.09;;;10.93;100.00
51297;BME280;37380;45.186;9.792;2023-03-14T00:57:42;100189.56;;;11.49;100.00
51297;BME280;37380;45.186;9.792;2023-03-14T01:00:11;100114.84;;;11.23;100.00
51297;BME280;37380;45.186;9.792;2023-03-14T01:02:39;100123.84;;;11.37;100.00
51297;BME280;37380;45.186;9.792;2023-03-14T01:05:06;99960.03;;;10.21;100.00
51297;BME280;37380;45.186;9.792;2023-03-14T01:07:34;100084.06;;;11.11;100.00
51297;BME280;37380;45.186;9.792;2023-03-14T01:10:07;100096.44;;;11.18;100.00
51297;BME280;37380;45.186;9.792;2023-03-14T01:13:01;100111.50;;;11.30;100.00
51297;BME280;37380;45.186;9.792;2023-03-14T01:15:28;100108.03;;;11.31;100.00
51297;BME280;37380;45.186;9.792;2023-03-14T01:17:55;100033.28;;;11.00;100.00
51297;BME280;37380;45.186;9.792;2023-03-14T01:20:22;100073.34;;;11.38;100.00
51297;BME280;37380;45.186;9.792;2023-03-14T01:22:49;100002.75;;;10.97;100.00
51297;BME280;37380;45.186;9.792;2023-03-14T01:25:23;100074.22;;;11.39;100.00
51297;BME280;37380;45.186;9.792;2023-03-14T01:28:24;100075.09;;;11.39;100.00
51297;BME280;37380;45.186;9.792;2023-03-14T01:31:25;100073.06;;;11.68;100.00
51297;BME280;37380;45.186;9.792;2023-03-14T01:34:27;100029.38;;;11.22;100.00
51297;BME280;37380;45.186;9.792;2023-03-14T01:36:54;100046.13;;;11.30;100.00
51297;BME280;37380;45.186;9.792;2023-03-14T01:39:22;100024.28;;;11.28;100.00
51297;BME280;37380;45.186;9.792;2023-03-14T01:41:56;100034.81;;;11.31;100.00
51297;BME280;37380;45.186;9.792;2023-03-14T01:44:53;100043.06;;;11.51;100.00
51297;BME280;37380;45.186;9.792;2023-03-14T01:47:21;99872.97;;;10.58;100.00
51297;BME280;37380;45.186;9.792;2023-03-14T01:49:58;99997.25;;;11.26;100.00
51297;BME280;37380;45.186;9.792;2023-03-14T01:52:34;100029.97;;;11.49;100.00
51297;BME280;37380;45.186;9.792;2023-03-14T01:55:05;100015.81;;;11.40;100.00
51297;BME280;37380;45.186;9.792;2023-03-14T01:57:44;99955.25;;;11.20;100.00
51297;BME280;37380;45.186;9.792;2023-03-14T02:00:15;99992.59;;;11.55;100.00
51297;BME280;37380;45.186;9.792;2023-03-14T02:02:49;99945.94;;;11.34;100.00
51297;BME280;37380;45.186;9.792;2023-03-14T02:05:23;99972.41;;;11.49;100.00
51297;BME280;37380;45.186;9.792;2023-03-14T02:07:56;99987.47;;;11.61;100.00
51297;BME280;37380;45.186;9.792;2023-03-14T02:10:42;99968.13;;;11.53;100.00
51297;BME280;37380;45.186;9.792;2023-03-14T02:13:50;99990.81;;;11.54;100.00
51297;BME280;37380;45.186;9.792;2023-03-14T02:16:36;99956.06;;;11.16;100.00
51297;BME280;37380;45.186;9.792;2023-03-14T02:22:38;99975.94;;;11.51;100.00
51297;BME280;37380;45.186;9.792;2023-03-14T02:28:40;99968.66;;;11.35;100.00
51297;BME280;37380;45.186;9.792;2023-03-14T02:31:08;99938.72;;;11.21;100.00
51297;BME280;37380;45.186;9.792;2023-03-14T02:33:36;99937.88;;;11.22;100.00
51297;BME280;37380;45.186;9.792;2023-03-14T02:36:06;99870.19;;;10.92;100.00
51297;BME280;37380;45.186;9.792;2023-03-14T02:41:49;99869.28;;;10.90;100.00
51297;BME280;37380;45.186;9.792;2023-03-14T02:48:16;99868.22;;;10.80;100.00
51297;BME280;37380;45.186;9.792;2023-03-14T02:50:46;99853.31;;;10.76;100.00
51297;BME280;37380;45.186;9.792;2023-03-14T02:53:18;99843.19;;;10.91;100.00
51297;BME280;37380;45.186;9.792;2023-03-14T02:55:47;99743.75;;;10.39;100.00
51297;BME280;37380;45.186;9.792;2023-03-14T02:58:18;99797.50;;;10.72;100.00
51297;BME280;37380;45.186;9.792;2023-03-14T03:00:50;99741.56;;;10.18;100.00
51297;BME280;37380;45.186;9.792;2023-03-14T03:03:17;99756.38;;;10.19;100.00
51297;BME280;37380;45.186;9.792;2023-03-14T03:05:48;99848.63;;;10.59;100.00
51297;BME280;37380;45.186;9.792;2023-03-14T03:08:22;99834.66;;;10.57;100.00
51297;BME280;37380;45.186;9.792;2023-03-14T03:10:57;99836.63;;;10.68;100.00
51297;BME280;37380;45.186;9.792;2023-03-14T03:13:51;99745.31;;;10.30;100.00
51297;BME280;37380;45.186;9.792;2023-03-14T03:16:19;99766.31;;;10.36;100.00
51297;BME280;37380;45.186;9.792;2023-03-14T03:18:46;99737.78;;;10.45;100.00
51297;BME280;37380;45.186;9.792;2023-03-14T03:21:13;99744.53;;;10.35;100.00
51297;BME280;37380;45.186;9.792;2023-03-14T03:23:42;99736.75;;;10.37;100.00
51297;BME280;37380;45.186;9.792;2023-03-14T03:26:16;99769.06;;;10.42;100.00
51297;BME280;37380;45.186;9.792;2023-03-14T03:29:19;99735.34;;;10.54;100.00
51297;BME280;37380;45.186;9.792;2023-03-14T03:32:13;99803.16;;;10.95;100.00
51297;BME280;37380;45.186;9.792;2023-03-14T03:34:40;99781.09;;;10.79;100.00
51297;BME280;37380;45.186;9.792;2023-03-14T03:37:07;99750.56;;;10.77;100.00
51297;BME280;37380;45.186;9.792;2023-03-14T03:39:38;99778.81;;;10.98;100.00
51297;BME280;37380;45.186;9.792;2023-03-14T03:42:12;99740.94;;;10.76;100.00
51297;BME280;37380;45.186;9.792;2023-03-14T03:45:06;99793.69;;;11.00;100.00
51297;BME280;37380;45.186;9.792;2023-03-14T03:47:37;99761.09;;;10.80;100.00
51297;BME280;37380;45.186;9.792;2023-03-14T03:50:05;99702.75;;;10.34;100.00
51297;BME280;37380;45.186;9.792;2023-03-14T03:52:32;99780.50;;;10.94;100.00
51297;BME280;37380;45.186;9.792;2023-03-14T03:54:59;99789.34;;;11.01;100.00
51297;BME280;37380;45.186;9.792;2023-03-14T03:57:27;99800.94;;;11.17;100.00
51297;BME280;37380;45.186;9.792;2023-03-14T03:59:56;99739.56;;;10.96;100.00
51297;BME280;37380;45.186;9.792;2023-03-14T04:02:29;99727.22;;;10.86;100.00
51297;BME280;37380;45.186;9.792;2023-03-14T04:05:31;99776.53;;;11.15;100.00
51297;BME280;37380;45.186;9.792;2023-03-14T04:08:25;99761.50;;;11.03;100.00
51297;BME280;37380;45.186;9.792;2023-03-14T04:11:00;99759.91;;;11.13;100.00
51297;BME280;37380;45.186;9.792;2023-03-14T04:13:46;99693.75;;;10.67;100.00
51297;BME280;37380;45.186;9.792;2023-03-14T04:16:21;99631.19;;;10.26;100.00
51297;BME280;37380;45.186;9.792;2023-03-14T04:18:52;99745.94;;;11.10;100.00
51297;BME280;37380;45.186;9.792;2023-03-14T04:21:21;99697.72;;;10.93;100.00
51297;BME280;37380;45.186;9.792;2023-03-14T04:23:53;99739.16;;;11.22;100.00
51297;BME280;37380;45.186;9.792;2023-03-14T04:26:28;99698.75;;;11.03;100.00
51297;BME280;37380;45.186;9.792;2023-03-14T04:29:22;99707.13;;;11.35;100.00
51297;BME280;37380;45.186;9.792;2023-03-14T04:31:49;99598.97;;;10.74;100.00
51297;BME280;37380;45.186;9.792;2023-03-14T04:34:16;99717.59;;;11.35;100.00
51297;BME280;37380;45.186;9.792;2023-03-14T04:36:48;99696.66;;;11.35;100.00
51297;BME280;37380;45.186;9.792;2023-03-14T04:39:20;99729.75;;;11.31;100.00
51297;BME280;37380;45.186;9.792;2023-03-14T04:42:03;99800.88;;;11.64;100.00
51297;BME280;37380;45.186;9.792;2023-03-14T04:44:57;99776.53;;;11.15;100.00
51297;BME280;37380;45.186;9.792;2023-03-14T04:47:27;99763.09;;;10.95;100.00
51297;BME280;37380;45.186;9.792;2023-03-14T04:49:54;99840.44;;;11.32;100.00
51297;BME280;37380;45.186;9.792;2023-03-14T04:52:24;99817.44;;;11.13;100.00
51297;BME280;37380;45.186;9.792;2023-03-14T04:54:51;99897.88;;;11.26;100.00
51297;BME280;37380;45.186;9.792;2023-03-14T04:57:20;99848.03;;;10.73;100.00
51297;BME280;37380;45.186;9.792;2023-03-14T04:59:55;99870.59;;;10.69;100.00
51297;BME280;37380;45.186;9.792;2023-03-14T05:03:06;99886.22;;;10.66;100.00
51297;BME280;37380;45.186;9.792;2023-03-14T05:06:05;99787.38;;;10.04;100.00
51297;BME280;37380;45.186;9.792;2023-03-14T05:08:32;99859.28;;;10.28;100.00
51297;BME280;37380;45.186;9.792;2023-03-14T05:11:21;99851.75;;;10.41;100.00
51297;BME280;37380;45.186;9.792;2023-03-14T05:14:00;99816.28;;;10.13;100.00
51297;BME280;37380;45.186;9.792;2023-03-14T05:16:47;99815.41;;;10.14;100.00
51297;BME280;37380;45.186;9.792;2023-03-14T05:19:27;99879.84;;;10.53;100.00
51297;BME280;37380;45.186;9.792;2023-03-14T05:21:57;99915.69;;;10.59;100.00
51297;BME280;37380;45.186;9.792;2023-03-14T05:24:40;99849.19;;;10.45;100.00
51297;BME280;37380;45.186;9.792;2023-03-14T05:27:49;99840.56;;;10.47;100.00
51297;BME280;37380;45.186;9.792;2023-03-14T05:31:09;99821.16;;;10.36;100.00
51297;BME280;37380;45.186;9.792;2023-03-14T05:33:52;99873.03;;;10.61;100.00
51297;BME280;37380;45.186;9.792;2023-03-14T05:36:28;99860.72;;;10.54;100.00
51297;BME280;37380;45.186;9.792;2023-03-14T05:39:22;99843.16;;;10.47;100.00
51297;BME280;37380;45.186;9.792;2023-03-14T05:41:59;99781.56;;;10.17;100.00
51297;BME280;37380;45.186;9.792;2023-03-14T05:45:03;99793.31;;;10.38;100.00
51297;BME280;37380;45.186;9.792;2023-03-14T05:47:51;99786.19;;;10.29;100.00
51297;BME280;37380;45.186;9.792;2023-03-14T05:50:28;99760.28;;;9.99;100.00
51297;BME280;37380;45.186;9.792;2023-03-14T05:53:22;99801.03;;;10.32;100.00
51297;BME280;37380;45.186;9.792;2023-03-14T05:56:22;99746.72;;;10.15;100.00
51297;BME280;37380;45.186;9.792;2023-03-14T05:59:09;99797.91;;;10.48;100.00
51297;BME280;37380;45.186;9.792;2023-03-14T06:02:19;99781.38;;;10.49;100.00
51297;BME280;37380;45.186;9.792;2023-03-14T06:05:23;99725.00;;;10.18;100.00
51297;BME280;37380;45.186;9.792;2023-03-14T06:07:56;99756.75;;;10.36;100.00
51297;BME280;37380;45.186;9.792;2023-03-14T06:10:31;99758.50;;;10.36;100.00
51297;BME280;37380;45.186;9.792;2023-03-14T06:13:30;99697.19;;;10.20;100.00
51297;BME280;37380;45.186;9.792;2023-03-14T06:15:57;99634.81;;;9.88;100.00
51297;BME280;37380;45.186;9.792;2023-03-14T06:18:24;99717.59;;;9.97;100.00
51297;BME280;37380;45.186;9.792;2023-03-14T06:20:54;99684.41;;;9.90;100.00
51297;BME280;37380;45.186;9.792;2023-03-14T06:23:25;99670.22;;;9.77;100.00
51297;BME280;37380;45.186;9.792;2023-03-14T06:25:59;99731.56;;;10.40;100.00
51297;BME280;37380;45.186;9.792;2023-03-14T06:28:54;99662.88;;;10.00;100.00
51297;BME280;37380;45.186;9.792;2023-03-14T06:31:21;99681.31;;;10.08;100.00
51297;BME280;37380;45.186;9.792;2023-03-14T06:33:54;99705.22;;;10.28;100.00
51297;BME280;37380;45.186;9.792;2023-03-14T06:36:25;99769.13;;;10.47;100.00
51297;BME280;37380;45.186;9.792;2023-03-14T06:38:53;99730.59;;;10.35;100.00
51297;BME280;37380;45.186;9.792;2023-03-14T06:41:26;99735.28;;;10.51;100.00
51297;BME280;37380;45.186;9.792;2023-03-14T06:44:27;99681.66;;;10.26;100.00
51297;BME280;37380;45.186;9.792;2023-03-14T06:47:28;99753.03;;;10.68;100.00
51297;BME280;37380;45.186;9.792;2023-03-14T06:50:13;99737.09;;;10.55;100.00
51297;BME280;37380;45.186;9.792;2023-03-14T06:52:41;99672.94;;;10.24;100.00
51297;BME280;37380;45.186;9.792;2023-03-14T06:55:19;99759.44;;;10.85;100.00
51297;BME280;37380;45.186;9.792;2023-03-14T06:57:49;99683.97;;;10.55;100.00
51297;BME280;37380;45.186;9.792;2023-03-14T07:00:24;99695.28;;;10.55;100.00
51297;BME280;37380;45.186;9.792;2023-03-14T07:03:22;99767.53;;;11.00;100.00
51297;BME280;37380;45.186;9.792;2023-03-14T07:05:58;99745.56;;;10.89;100.00
51297;BME280;37380;45.186;9.792;2023-03-14T07:08:53;99795.38;;;10.98;100.00
51297;BME280;37380;45.186;9.792;2023-03-14T07:11:22;99777.22;;;11.06;100.00
51297;BME280;37380;45.186;9.792;2023-03-14T07:13:49;99741.94;;;10.81;100.00
51297;BME280;37380;45.186;9.792;2023-03-14T07:16:16;99743.53;;;10.29;100.00
51297;BME280;37380;45.186;9.792;2023-03-14T07:18:43;99779.81;;;10.18;100.00
51297;BME280;37380;45.186;9.792;2023-03-14T07:21:10;99785.72;;;10.09;100.00
51297;BME280;37380;45.186;9.792;2023-03-14T07:23:38;99784.09;;;10.13;100.00
51297;BME280;37380;45.186;9.792;2023-03-14T07:26:13;99796.34;;;10.17;100.00
51297;BME280;37380;45.186;9.792;2023-03-14T07:29:07;99802.66;;;10.27;100.00
51297;BME280;37380;45.186;9.792;2023-03-14T07:31:35;99802.22;;;10.07;100.00
51297;BME280;37380;45.186;9.792;2023-03-14T07:34:02;99709.47;;;9.82;100.00
51297;BME280;37380;45.186;9.792;2023-03-14T07:36:34;99813.25;;;10.33;100.00
51297;BME280;37380;45.186;9.792;2023-03-14T07:39:02;99754.31;;;10.05;100.00
51297;BME280;37380;45.186;9.792;2023-03-14T07:41:43;99728.03;;;9.95;100.00
51297;BME280;37380;45.186;9.792;2023-03-14T07:45:09;99825.00;;;10.53;100.00
51297;BME280;37380;45.186;9.792;2023-03-14T07:47:38;99826.03;;;10.22;100.00
51297;BME280;37380;45.186;9.792;2023-03-14T07:50:05;99743.25;;;9.75;100.00
51297;BME280;37380;45.186;9.792;2023-03-14T07:52:32;99846.22;;;10.28;100.00
51297;BME280;37380;45.186;9.792;2023-03-14T07:54:59;99838.38;;;10.28;100.00
51297;BME280;37380;45.186;9.792;2023-03-14T07:57:33;99808.03;;;10.33;100.00
51297;BME280;37380;45.186;9.792;2023-03-14T08:00:08;99780.00;;;10.26;100.00
51297;BME280;37380;45.186;9.792;2023-03-14T08:03:09;99796.97;;;10.45;100.00
51297;BME280;37380;45.186;9.792;2023-03-14T08:06:09;99806.03;;;10.62;100.00
51297;BME280;37380;45.186;9.792;2023-03-14T08:08:42;99783.22;;;10.53;100.00
51297;BME280;37380;45.186;9.792;2023-03-14T08:11:38;99781.09;;;10.35;100.00
51297;BME280;37380;45.186;9.792;2023-03-14T08:14:05;99812.06;;;10.59;100.00
51297;BME280;37380;45.186;9.792;2023-03-14T08:16:32;99828.03;;;10.75;100.00
51297;BME280;37380;45.186;9.792;2023-03-14T08:18:59;99788.16;;;10.41;100.00
51297;BME280;37380;45.186;9.792;2023-03-14T08:21:27;99767.13;;;10.33;100.00
51297;BME280;37380;45.186;9.792;2023-03-14T08:23:54;99819.16;;;10.67;100.00
51297;BME280;37380;45.186;9.792;2023-03-14T08:26:27;99782.66;;;10.70;100.00
51297;BME280;37380;45.186;9.792;2023-03-14T08:29:21;99671.22;;;10.26;100.00
51297;BME280;37380;45.186;9.792;2023-03-14T08:31:48;99715.31;;;10.53;100.00
51297;BME280;37380;45.186;9.792;2023-03-14T08:34:16;99786.41;;;10.84;100.00
51297;BME280;37380;45.186;9.792;2023-03-14T08:36:43;99775.94;;;10.84;100.00
51297;BME280;37380;45.186;9.792;2023-03-14T08:39:10;99781.13;;;10.81;100.00
51297;BME280;37380;45.186;9.792;2023-03-14T08:41:44;99756.53;;;10.70;100.00
51297;BME280;37380;45.186;9.792;2023-03-14T08:44:38;99823.31;;;11.02;100.00
51297;BME280;37380;45.186;9.792;2023-03-14T08:47:05;99799.47;;;10.84;100.00
51297;BME280;37380;45.186;9.792;2023-03-14T08:49:32;99832.56;;;10.83;100.00
51297;BME280;37380;45.186;9.792;2023-03-14T08:52:02;99725.53;;;10.02;100.00
51297;BME280;37380;45.186;9.792;2023-03-14T08:54:32;99798.72;;;10.46;100.00
51297;BME280;37380;45.186;9.792;2023-03-14T08:56:59;99805.00;;;10.55;100.00
51297;BME280;37380;45.186;9.792;2023-03-14T08:59:33;99815.81;;;10.31;100.00
51297;BME280;37380;45.186;9.792;2023-03-14T09:02:34;99797.94;;;10.10;100.00
51297;BME280;37380;45.186;9.792;2023-03-14T09:05:14;99837.53;;;10.29;100.00
51297;BME280;37380;45.186;9.792;2023-03-14T09:08:08;99871.91;;;10.49;100.00
51297;BME280;37380;45.186;9.792;2023-03-14T09:10:55;99839.69;;;10.48;100.00
51297;BME280;37380;45.186;9.792;2023-03-14T09:13:23;99836.19;;;10.48;100.00
51297;BME280;37380;45.186;9.792;2023-03-14T09:15:51;99826.75;;;10.54;100.00
51297;BME280;37380;45.186;9.792;2023-03-14T09:18:18;99767.59;;;10.15;100.00
51297;BME280;37380;45.186;9.792;2023-03-14T09:20:46;99838.53;;;10.76;100.00
51297;BME280;37380;45.186;9.792;2023-03-14T09:23:13;99821.19;;;10.80;100.00
51297;BME280;37380;45.186;9.792;2023-03-14T09:25:46;99877.94;;;11.34;100.00
51297;BME280;37380;45.186;9.792;2023-03-14T09:28:40;99794.66;;;11.07;100.00
51297;BME280;37380;45.186;9.792;2023-03-14T09:31:09;99875.06;;;11.69;100.00
51297;BME280;37380;45.186;9.792;2023-03-14T09:33:37;99861.00;;;11.61;100.00
51297;BME280;37380;45.186;9.792;2023-03-14T09:36:04;99858.31;;;11.57;100.00
51297;BME280;37380;45.186;9.792;2023-03-14T09:38:32;99841.94;;;11.19;100.00
51297;BME280;37380;45.186;9.792;2023-03-14T09:41:02;99853.31;;;11.71;100.00
51297;BME280;37380;45.186;9.792;2023-03-14T09:43:44;99840.84;;;11.55;100.00
51297;BME280;37380;45.186;9.792;2023-03-14T09:46:41;99866.50;;;11.77;100.00
51297;BME280;37380;45.186;9.792;2023-03-14T09:49:20;99740.25;;;10.84;100.00
51297;BME280;37380;45.186;9.792;2023-03-14T09:51:52;99839.53;;;11.30;100.00
51297;BME280;37380;45.186;9.792;2023-03-14T09:54:34;99862.19;;;11.31;100.00
51297;BME280;37380;45.186;9.792;2023-03-14T09:57:04;99862.94;;;11.74;100.00
51297;BME280;37380;45.186;9.792;2023-03-14T09:59:39;99852.09;;;11.51;100.00
51297;BME280;37380;45.186;9.792;2023-03-14T10:02:35;99862.66;;;11.55;100.00
51297;BME280;37380;45.186;9.792;2023-03-14T10:05:07;99858.91;;;11.41;100.00
51297;BME280;37380;45.186;9.792;2023-03-14T10:07:40;99814.56;;;11.47;100.00
51297;BME280;37380;45.186;9.792;2023-03-14T10:10:16;99810.91;;;11.38;100.00
51297;BME280;37380;45.186;9.792;2023-03-14T10:12:46;99847.13;;;12.21;100.00
51297;BME280;37380;45.186;9.792;2023-03-14T10:15:15;99806.72;;;12.04;100.00
51297;BME280;37380;45.186;9.792;2023-03-14T10:17:50;99697.09;;;11.66;100.00
51297;BME280;37380;45.186;9.792;2023-03-14T10:20:35;99836.09;;;12.43;100.00
51297;BME280;37380;45.186;9.792;2023-03-14T10:29:12;99791.00;;;12.69;100.00
51297;BME280;37380;45.186;9.792;2023-03-14T10:32:19;99833.94;;;12.80;100.00
51297;BME280;37380;45.186;9.792;2023-03-14T10:35:04;99696.22;;;11.64;100.00
51297;BME280;37380;45.186;9.792;2023-03-14T10:37:32;99796.97;;;12.57;100.00
51297;BME280;37380;45.186;9.792;2023-03-14T10:40:01;99843.25;;;13.34;100.00
51297;BME280;37380;45.186;9.792;2023-03-14T10:42:41;99833.63;;;12.54;100.00
51297;BME280;37380;45.186;9.792;2023-03-14T10:45:44;99804.56;;;12.37;100.00
51297;BME280;37380;45.186;9.792;2023-03-14T10:48:39;99827.19;;;13.05;100.00
51297;BME280;37380;45.186;9.792;2023-03-14T10:53:46;99811.03;;;13.48;100.00
51297;BME280;37380;45.186;9.792;2023-03-14T10:56:17;99813.13;;;13.95;100.00
51297;BME280;37380;45.186;9.792;2023-03-14T10:58:47;99734.41;;;14.07;100.00
51297;BME280;37380;45.186;9.792;2023-03-14T11:01:37;99813.69;;;15.27;100.00
51297;BME280;37380;45.186;9.792;2023-03-14T11:07:16;99815.13;;;14.36;100.00
51297;BME280;37380;45.186;9.792;2023-03-14T11:15:41;99805.19;;;12.89;100.00
51297;BME280;37380;45.186;9.792;2023-03-14T11:26:55;99795.66;;;13.97;100.00
51297;BME280;37380;45.186;9.792;2023-03-14T11:35:31;99786.34;;;14.62;100.00
51297;BME280;37380;45.186;9.792;2023-03-14T11:38:51;99769.75;;;14.86;100.00
51297;BME280;37380;45.186;9.792;2023-03-14T11:40:54;99649.66;;;14.60;100.00
51297;BME280;37380;45.186;9.792;2023-03-14T11:43:33;99771.59;;;15.91;100.00
51297;BME280;37380;45.186;9.792;2023-03-14T11:46:39;99757.50;;;16.04;100.00
51297;BME280;37380;45.186;9.792;2023-03-14T11:52:03;99769.28;;;17.13;100.00
51297;BME280;37380;45.186;9.792;2023-03-14T11:57:16;99781.22;;;15.08;100.00
51297;BME280;37380;45.186;9.792;2023-03-14T12:06:46;99760.94;;;16.29;100.00
51297;BME280;37380;45.186;9.792;2023-03-14T12:08:46;99629.38;;;15.77;100.00
51297;BME280;37380;45.186;9.792;2023-03-14T12:11:40;99767.41;;;17.30;100.00
51297;BME280;37380;45.186;9.792;2023-03-14T12:14:51;99760.22;;;15.71;100.00
51297;BME280;37380;45.186;9.792;2023-03-14T12:17:45;99689.75;;;14.04;100.00
51297;BME280;37380;45.186;9.792;2023-03-14T12:20:25;99673.81;;;13.69;100.00
51297;BME280;37380;45.186;9.792;2023-03-14T12:23:01;99701.25;;;14.38;100.00
51297;BME280;37380;45.186;9.792;2023-03-14T12:25:36;99688.28;;;14.98;100.00
51297;BME280;37380;45.186;9.792;2023-03-14T12:28:31;99749.47;;;14.40;100.00
51297;BME280;37380;45.186;9.792;2023-03-14T12:42:22;99739.09;;;15.03;100.00
51297;BME280;37380;45.186;9.792;2023-03-14T12:45:40;99647.00;;;15.43;100.00
51297;BME280;37380;45.186;9.792;2023-03-14T12:48:34;99726.84;;;15.24;100.00
51297;BME280;37380;45.186;9.792;2023-03-14T12:51:03;99680.34;;;14.83;100.00
51297;BME280;37380;45.186;9.792;2023-03-14T12:59:12;99695.19;;;15.93;100.00
51297;BME280;37380;45.186;9.792;2023-03-14T13:01:59;99695.94;;;16.24;100.00
51297;BME280;37380;45.186;9.792;2023-03-14T13:04:28;99683.34;;;16.78;100.00
51297;BME280;37380;45.186;9.792;2023-03-14T13:07:11;99696.03;;;16.01;100.00
51297;BME280;37380;45.186;9.792;2023-03-14T13:09:54;99655.19;;;16.80;100.00
51297;BME280;37380;45.186;9.792;2023-03-14T13:15:39;99671.13;;;17.65;100.00
51297;BME280;37380;45.186;9.792;2023-03-14T13:18:14;99660.25;;;17.11;100.00
51297;BME280;37380;45.186;9.792;2023-03-14T13:23:21;99674.53;;;17.76;100.00
51297;BME280;37380;45.186;9.792;2023-03-14T13:25:56;99659.28;;;18.03;100.00
51297;BME280;37380;45.186;9.792;2023-03-14T13:28:51;99623.03;;;18.14;100.00
51297;BME280;37380;45.186;9.792;2023-03-14T13:31:24;99627.66;;;17.97;100.00
51297;BME280;37380;45.186;9.792;2023-03-14T13:34:02;99621.53;;;17.92;100.00
51297;BME280;37380;45.186;9.792;2023-03-14T13:36:31;99613.03;;;18.35;100.00
51297;BME280;37380;45.186;9.792;2023-03-14T13:39:00;99663.88;;;18.55;100.00
51297;BME280;37380;45.186;9.792;2023-03-14T13:41:36;99594.31;;;17.86;100.00
51297;BME280;37380;45.186;9.792;2023-03-14T13:44:39;99625.06;;;17.94;100.00
51297;BME280;37380;45.186;9.792;2023-03-14T13:47:38;99629.38;;;17.99;100.00
51297;BME280;37380;45.186;9.792;2023-03-14T13:50:56;99647.81;;;15.63;100.00
51297;BME280;37380;45.186;9.792;2023-03-14T13:53:59;99594.22;;;15.84;100.00
51297;BME280;37380;45.186;9.792;2023-03-14T13:56:38;99535.44;;;15.82;100.00
51297;BME280;37380;45.186;9.792;2023-03-14T13:59:30;99647.66;;;16.11;100.00
51297;BME280;37380;45.186;9.792;2023-03-14T14:02:00;99639.66;;;16.34;100.00
51297;BME280;37380;45.186;9.792;2023-03-14T14:04:32;99560.50;;;16.40;100.00
51297;BME280;37380;45.186;9.792;2023-03-14T14:07:05;99646.75;;;17.41;100.00
51297;BME280;37380;45.186;9.792;2023-03-14T14:09:39;99637.25;;;15.91;100.00
51297;BME280;37380;45.186;9.792;2023-03-14T14:12:49;99619.06;;;16.91;100.00
51297;BME280;37380;45.186;9.792;2023-03-14T14:15:54;99577.81;;;16.78;100.00
51297;BME280;37380;45.186;9.792;2023-03-14T14:18:35;99641.25;;;16.57;100.00
51297;BME280;37380;45.186;9.792;2023-03-14T14:21:02;99571.38;;;15.94;100.00
51297;BME280;37380;45.186;9.792;2023-03-14T14:23:31;99641.25;;;16.60;100.00
51297;BME280;37380;45.186;9.792;2023-03-14T14:25:59;99635.03;;;16.70;100.00
51297;BME280;37380;45.186;9.792;2023-03-14T14:28:35;99629.41;;;15.71;100.00
51297;BME280;37380;45.186;9.792;2023-03-14T14:31:37;99609.31;;;14.49;100.00
51297;BME280;37380;45.186;9.792;2023-03-14T14:34:55;99630.41;;;14.81;100.00
51297;BME280;37380;45.186;9.792;2023-03-14T14:37:29;99591.78;;;15.28;100.00
51297;BME280;37380;45.186;9.792;2023-03-14T14:40:16;99614.56;;;15.26;100.00
51297;BME280;37380;45.186;9.792;2023-03-14T14:43:23;99619.78;;;15.56;100.00
51297;BME280;37380;45.186;9.792;2023-03-14T14:46:18;99630.28;;;15.75;100.00
51297;BME280;37380;45.186;9.792;2023-03-14T14:48:56;99525.19;;;14.97;100.00
51297;BME280;37380;45.186;9.792;2023-03-14T14:52:04;99575.00;;;15.69;100.00
51297;BME280;37380;45.186;9.792;2023-03-14T14:54:59;99546.94;;;15.52;100.00
51297;BME280;37380;45.186;9.792;2023-03-14T14:57:31;99611.63;;;16.21;100.00
51297;BME280;37380;45.186;9.792;2023-03-14T15:00:05;99576.63;;;15.96;100.00
51297;BME280;37380;45.186;9.792;2023-03-14T15:02:35;99613.31;;;16.28;100.00
51297;BME280;37380;45.186;9.792;2023-03-14T15:05:03;99545.13;;;15.74;100.00
51297;BME280;37380;45.186;9.792;2023-03-14T15:07:30;99588.09;;;15.84;100.00